CFB Cold Lake
CYOD : now visible

Airfield :











YOU CAN JOIN US ON...

 
LOGIN :

Register | Disclaimer

   EN    FR    IT 

 









Legend :    VFR   Marginal VFR   IFR   Intensive IFR   Very Intensive IFR
Visi :
Ceiling :
>= 8 km
>= 3000ft
5 to 8 km
1000 to 3000 ft
1500m to 5 km
500 to 1000 ft
800 to 1500m
200 to 500 ft
< 800m
< 200 ft
Symbols :   Thunderstorms  Fog  Heavy snow  Heavy precipitations  Wind > 20 kt






- Airport Elevation : 1775 ft
- IATA code : YOD


CYOD - CFB Cold Lake

CURRENT METAR :
  • 080700Z 00000KT 15SM OVC200 M10/M10 A2976 RMK CI8 DENSITY ALT -831FT SLP108

EXPIRED METARs :
  • 080600Z 00000KT 15SM SCT200 M07/M09 A2975 RMK CI4 DENSITY ALT -467FT SLP103
  • 080500Z 25004KT 15SM SCT130 M03/M06 A2974 RMK AC4 DENSITY ALT 156FT SLP094

TAF TAF CYOD
Valid from the 08 at 06:00 until the 09 at 06:00 UTC


080540Z 0806/0906 VRB03KT P6SM SCT130
BECMG 0806/0808 BKN120
FM081300 32005KT P6SM BKN200
FM081700 27005KT P6SM SCT200 RMK NXT FCST BY 081200Z
CZEG FIR / North America



MET'MAP, your aeronautical weather chart ! - Copyright ORBIFLY December 2007 - Disclaimer

ORBIFLY MET'MAP TEAM :

Programming & Development : Alexandra Zaïnal
Original concept : Baudouin d'Aumeries
Technical & hardware support : Manuel Goepfert
Assistance : Marc-Olivier Méhu




SOURCES & CREDITS :

   NOAA       Earth
Advisory